• Join FlightAware (Why Join?)
  • Login
  • US Flag 
Rudolph Flight #1: Arrived! 
08:11AM EST


 

Airport Tracker/Info


-or-


 

Live Flight TrackerFlight Track Log ✈ UAL582 ✈ 25-Oct-2013 ✈ CYYZ - KORD

Flight Track Log - Related Links

Times and Time Zones

All times are in EDT time to prevent confusion due to time zone crossing. See the UAL582 flight status page for this flight to view local times or setup timezone preferences in your user account.

Time Position Orientation Groundspeed Altitude Reporting Facility
EDT Latitude Longitude Course Direction KTS MPH feet Rate Location/Type
05:34PM 43.6667 -79.6333 304° West 40 46 1,000  Level Toronto Center
05:35PM 43.6167 -79.6833 216° Southwest 220 253 2,900 2,700 Climbing Toronto Center
05:36PM 43.5833 -79.7500 235° Southwest 240 276 6,500 2,040 Climbing Toronto Center
05:37PM 43.6180 -79.9883 270° West  Level Estimated
05:37PM 43.6000 -79.8333 285° West 250 288 7,000  Level Toronto Center
05:38PM 43.5980 -80.1074 277° West  Level Estimated
05:38PM 43.6167 -79.9167 285° West 250 288 7,000  Level Toronto Center
05:39PM 43.5779 -80.2265 270° West  Level Estimated
05:39PM 43.6500 -80.0167 295° West 250 288 9,800  Level Toronto Center
05:40PM 43.6168 -80.3072 304° West  Level FlightAware Approximate
05:40PM 43.6667 -80.1167 283° West 280 322 12,200  Level Toronto Center
05:41PM 43.6833 -80.2333 281° West 310 357 15,200 2,820 Climbing Toronto Center
05:42PM 43.7000 -80.3500 281° West 320 368 17,900 2,400 Climbing Toronto Center
05:43PM 43.7333 -80.4667 292° West 330 380 20,000 2,160 Climbing Toronto Center
05:44PM 43.7333 -80.6333 270° West 350 403 22,300 1,800 Climbing Toronto Center
05:45PM 43.7000 -80.7333 245° Southwest 370 426 23,700 1,920 Climbing Toronto Center
05:46PM 43.6500 -80.9000 248° West 390 449 26,200 2,280 Climbing Toronto Center
05:47PM 43.6167 -81.0333 251° West 380 437 28,300 2,040 Climbing Toronto Center
05:48PM 43.5833 -81.1833 253° West 380 437 30,300 1,320 Climbing Toronto Center
05:49PM 43.5667 -81.3167 260° West 380 437 31,000 1,020 Climbing Toronto Center
05:50PM 43.5333 -81.4500 251° West 400 460 32,400 1,200 Climbing Toronto Center
05:51PM 43.5000 -81.6167 255° West 410 472 33,500 1,020 Climbing Toronto Center
05:52PM 43.4667 -81.7667 253° West 420 483 34,500 960 Climbing Toronto Center
05:54PM 43.4242 -81.9964 256° West 401 461 36,000 540 Climbing Cleveland Center
05:55PM 43.3906 -82.1356 252° West 388 447 36,000  Level Cleveland Center
05:56PM 43.3575 -82.2786 252° West 392 451 36,000 -60 Level Cleveland Center
05:57PM 43.3178 -82.4467 252° West 389 448 35,900 -540 Descending Cleveland Center
05:58PM 43.2850 -82.5889 252° West 392 451 34,900 -960 Descending Cleveland Center
05:59PM 43.2483 -82.7364 251° West 407 468 34,000 -960 Descending Cleveland Center
06:00PM 43.2081 -82.8817 249° West 410 472 33,000 -840 Descending Cleveland Center
06:01PM 43.1683 -83.0278 250° West 412 474 32,300 -960 Descending Cleveland Center
06:02PM 43.1194 -83.2000 249° West 408 470 31,100 -1,080 Descending Cleveland Center
06:03PM 43.0803 -83.3392 249° West 397 457 30,100 -1,020 Descending Cleveland Center
06:04PM 43.0400 -83.4806 249° West 401 461 29,100 -1,020 Descending Cleveland Center
06:05PM 43.0008 -83.6194 249° West 396 456 28,100 -540 Descending Cleveland Center
06:06PM 42.9653 -83.7600 251° West 395 455 28,000 -60 Descending Cleveland Center
06:07PM 42.9478 -83.9306 262° West 383 441 28,000  Level Cleveland Center
06:08PM 42.9342 -84.0736 263° West 382 440 28,000  Level Cleveland Center
06:09PM 42.9208 -84.2142 263° West 377 434 28,000  Level Cleveland Center
06:10PM 42.9061 -84.3678 263° West 380 437 28,000  Level Cleveland Center
06:11PM 42.8903 -84.5114 261° West 380 437 28,000  Level Chicago Center
06:12PM 42.8767 -84.6531 263° West 380 437 28,000  Level Chicago Center
06:13PM 42.8625 -84.7939 262° West 377 434 28,000  Level Chicago Center
06:14PM 42.8475 -84.9347 262° West 375 432 28,000  Level Chicago Center
06:15PM 42.8294 -85.1028 262° West 375 432 28,000  Level Chicago Center
06:16PM 42.8144 -85.2428 262° West 374 430 28,000  Level Chicago Center
06:17PM 42.7994 -85.3822 262° West 372 428 28,000 -1,200 Level Chicago Center
06:23PM 42.6880 -86.0420 262° West 100 115 20,000 -1,380 Descending FlightAware
06:23PM 42.6870 -86.0550 264° West 100 115 20,000  Level FlightAware
06:24PM 42.6840 -86.0740 258° West 100 115 20,000  Level FlightAware
06:25PM 42.6800 -86.1040 260° West 100 115 20,000  Level FlightAware
06:26PM 42.6750 -86.1350 258° West 100 115 20,000  Level FlightAware
06:26PM 42.6730 -86.1480 258° West 100 115 20,000 -2,040 Level FlightAware
06:31PM 42.4800 -87.0220 254° West 100 115 9,800 -2,040 Descending FlightAware
06:31PM 42.4770 -87.0360 254° West 100 115 9,800  Level FlightAware
06:32PM 42.4740 -87.0490 253° West 100 115 9,800  Level FlightAware
06:33PM 42.4700 -87.0690 255° West 100 115 9,800  Level FlightAware
06:33PM 42.4690 -87.0750 257° West 100 115 9,800  Level FlightAware
06:33PM 42.4680 -87.0810 257° West 100 115 9,800 -900 Level FlightAware
06:34PM 42.3667 -87.2667 257° West 297 342 9,000 -1,200 Descending Chicago TRACON
06:35PM 42.2833 -87.2833 188° South 278 320 7,700 -1,260 Descending Chicago TRACON
06:36PM 42.2167 -87.3333 209° Southwest 256 295 6,500 -900 Descending Chicago TRACON
06:37PM 42.1667 -87.3833 217° Southwest 246 283 6,000 -360 Descending Chicago TRACON
06:38PM 42.1167 -87.4333 217° Southwest 244 281 5,800 -360 Descending Chicago TRACON
06:39PM 42.0500 -87.4833 209° Southwest 243 280 5,300 -420 Descending Chicago TRACON
06:40PM 42.0000 -87.5500 225° Southwest 208 239 5,000 -240 Descending Chicago TRACON
06:41PM 41.9833 -87.6000 246° West 200 230 4,900 -480 Descending Chicago TRACON
06:41PM 41.9831 -87.6381 269° West 199 229 4,400 -1,140 Descending Chicago Center
06:42PM 41.9833 -87.6833 270° West 189 217 3,800 -1,020 Descending Chicago TRACON
06:43PM 41.9833 -87.7333 270° West 146 168 2,900 -900 Descending Chicago TRACON
06:44PM 41.9833 -87.7833 270° West 151 174 2,100 -840 Descending Chicago TRACON
06:45PM 41.9833 -87.8500 270° West 134 154 1,300 -840 Descending Chicago TRACON